Terminal Aerodrome Forecast
Issued by NWS Upton, NY

Home | Current Version | Previous Version | Text Only | Print | Product List | Glossary On
Versions: 1 2 3 4 5 6 7 8 9 10 11 12 13 14 15 16 17 18 19 20 21 22 23 24 25 26 27 28 29 30 31 32 33 34 35
565
FTUS41 KOKX 281730
TAFEWR
TAF
KEWR 281730Z 2818/2924 28011G17KT P6SM BKN060
     FM290000 24009KT P6SM SCT060 SCT250
     FM290300 23007KT P6SM SCT150
     FM291500 21009G16KT P6SM SCT060 SCT250
     FM291900 21013G20KT P6SM FEW060 SCT250=

USA.gov is the U.S. government's official web portal to all federal, state and local government web resources and services.